createdAt,value
2018-08-09T00:01:53.020Z,23.43
2018-08-09T00:04:21.953Z,23.53
2018-08-09T00:06:51.780Z,23.83
2018-08-09T00:09:21.443Z,23.66
2018-08-09T00:11:51.716Z,23.77
2018-08-09T00:14:21.953Z,24.09
2018-08-09T00:16:51.005Z,24.04
2018-08-09T00:19:20.912Z,24.11
2018-08-09T00:21:49.760Z,23.98
2018-08-09T00:24:19.406Z,23.59
2018-08-09T00:26:52.764Z,23.14
2018-08-09T00:29:22.414Z,22.99
2018-08-09T00:31:52.082Z,23.05
2018-08-09T00:34:22.342Z,23.63
2018-08-09T00:36:53.147Z,23.55
2018-08-09T00:39:22.081Z,23.79
2018-08-09T00:41:51.012Z,23.52
2018-08-09T00:44:20.019Z,23.48
2018-08-09T00:46:49.770Z,23.64
2018-08-09T00:49:19.495Z,23.66
2018-08-09T00:51:48.416Z,23.50
2018-08-09T00:54:17.296Z,23.66
2018-08-09T00:56:46.259Z,23.35
2018-08-09T00:59:15.823Z,23.50
2018-08-09T01:01:44.729Z,23.32
2018-08-09T01:04:13.837Z,22.94
2018-08-09T01:06:43.428Z,22.80
2018-08-09T01:09:15.286Z,22.80
2018-08-09T01:11:44.489Z,23.13
2018-08-09T01:14:13.449Z,22.92
2018-08-09T01:16:42.390Z,23.13
2018-08-09T01:19:11.371Z,23.44
2018-08-09T01:21:40.428Z,23.20
2018-08-09T01:24:09.428Z,23.24
2018-08-09T01:26:38.326Z,23.17
2018-08-09T01:29:07.365Z,23.34
2018-08-09T01:31:38.400Z,23.21
2018-08-09T01:34:08.723Z,23.08
2018-08-09T01:36:38.885Z,23.21
2018-08-09T01:39:09.440Z,23.22
2018-08-09T01:41:38.390Z,22.85
2018-08-09T01:44:07.898Z,22.93
2018-08-09T01:46:36.867Z,22.87
2018-08-09T01:49:05.916Z,22.96
2018-08-09T01:51:34.921Z,22.64
2018-08-09T01:54:04.222Z,22.34
2018-08-09T01:56:33.355Z,22.90
2018-08-09T01:59:02.314Z,22.35
2018-08-09T02:01:31.490Z,22.20
2018-08-09T02:04:00.517Z,22.25
2018-08-09T02:06:29.505Z,22.33
2018-08-09T02:09:02.782Z,22.16
2018-08-09T02:11:31.714Z,22.09
2018-08-09T02:14:00.795Z,21.84
2018-08-09T02:16:29.788Z,21.90
2018-08-09T02:18:58.667Z,21.96
2018-08-09T02:21:27.670Z,22.08
2018-08-09T02:23:56.800Z,22.00
2018-08-09T02:26:25.739Z,21.82
2018-08-09T02:28:55.579Z,22.13
2018-08-09T02:31:24.473Z,22.12
2018-08-09T02:33:53.375Z,22.11
2018-08-09T02:36:23.040Z,22.40
2018-08-09T02:38:52.283Z,22.27
2018-08-09T02:41:21.492Z,22.22
2018-08-09T02:43:50.614Z,21.76
2018-08-09T02:46:19.561Z,21.54
2018-08-09T02:48:48.975Z,21.77
2018-08-09T02:51:18.051Z,22.04
2018-08-09T02:53:47.076Z,21.83
2018-08-09T02:56:15.975Z,22.03
2018-08-09T02:58:44.965Z,21.81
2018-08-09T03:01:13.985Z,21.71
2018-08-09T03:03:43.001Z,21.44
2018-08-09T03:06:12.788Z,21.59
2018-08-09T03:08:41.988Z,21.72
2018-08-09T03:11:11.648Z,21.44
2018-08-09T03:13:40.724Z,21.40
2018-08-09T03:16:09.588Z,21.27
2018-08-09T03:18:39.743Z,21.92
2018-08-09T03:21:08.824Z,21.78
2018-08-09T03:23:37.924Z,21.52
2018-08-09T03:26:06.913Z,21.38
2018-08-09T03:28:37.363Z,21.48
2018-08-09T03:31:06.420Z,21.42
2018-08-09T03:33:35.471Z,21.15
2018-08-09T03:36:05.487Z,21.28
2018-08-09T03:38:34.733Z,21.30
2018-08-09T03:41:03.847Z,20.88
2018-08-09T03:43:32.933Z,21.26
2018-08-09T03:46:01.807Z,21.12
2018-08-09T03:48:30.939Z,21.09
2018-08-09T03:51:00.020Z,21.11
2018-08-09T03:53:29.164Z,21.20
2018-08-09T03:55:58.211Z,21.21
2018-08-09T03:58:27.382Z,21.51
2018-08-09T04:00:56.378Z,21.44
2018-08-09T04:03:25.528Z,21.35
2018-08-09T04:05:54.655Z,21.30
2018-08-09T04:08:23.652Z,21.29
2018-08-09T04:10:52.690Z,21.26
2018-08-09T04:13:21.811Z,21.28
2018-08-09T04:15:51.617Z,21.16
2018-08-09T04:18:20.766Z,21.26
2018-08-09T04:20:49.852Z,21.37
2018-08-09T04:23:18.985Z,21.34
2018-08-09T04:25:48.165Z,21.27
2018-08-09T04:28:17.200Z,21.16
2018-08-09T04:30:46.088Z,21.24
2018-08-09T04:33:15.231Z,21.26
2018-08-09T04:35:44.570Z,21.21
2018-08-09T04:38:13.804Z,21.35
2018-08-09T04:40:43.721Z,21.31
2018-08-09T04:43:12.719Z,21.12
2018-08-09T04:45:41.691Z,21.30
2018-08-09T04:48:10.812Z,21.31
2018-08-09T04:50:39.733Z,21.43
2018-08-09T04:53:08.679Z,21.29
2018-08-09T04:55:37.732Z,21.29
2018-08-09T04:58:07.057Z,21.25
2018-08-09T05:00:35.974Z,21.34
2018-08-09T05:03:05.245Z,21.24
2018-08-09T05:05:34.125Z,21.39
2018-08-09T05:08:03.652Z,21.42
2018-08-09T05:10:32.745Z,21.51
2018-08-09T05:13:01.725Z,21.54
2018-08-09T05:15:30.840Z,21.52
2018-08-09T05:17:59.766Z,21.60
2018-08-09T05:20:28.864Z,21.57
2018-08-09T05:22:57.978Z,21.61
2018-08-09T05:25:27.009Z,21.75
2018-08-09T05:27:56.045Z,21.78
2018-08-09T05:30:25.013Z,21.66
2018-08-09T05:32:53.969Z,21.94
2018-08-09T05:35:23.033Z,21.92
2018-08-09T05:37:52.061Z,21.89
2018-08-09T05:40:21.040Z,21.89
2018-08-09T05:42:50.015Z,21.87
2018-08-09T05:45:18.988Z,22.07
2018-08-09T05:47:48.047Z,21.87
2018-08-09T05:50:17.077Z,21.80
2018-08-09T05:52:46.009Z,21.82
2018-08-09T05:55:14.965Z,21.92
2018-08-09T05:57:44.165Z,21.86
2018-08-09T06:00:14.333Z,21.77
2018-08-09T06:02:50.402Z,21.87
2018-08-09T06:05:20.621Z,21.78
2018-08-09T06:07:51.733Z,21.84
2018-08-09T06:10:20.922Z,22.05
2018-08-09T06:12:49.935Z,22.06
2018-08-09T06:15:18.974Z,21.86
2018-08-09T06:17:47.919Z,22.20
2018-08-09T06:20:16.860Z,22.19
2018-08-09T06:22:46.706Z,22.32
2018-08-09T06:25:17.575Z,22.41
2018-08-09T06:27:48.642Z,22.39
2018-08-09T06:30:37.284Z,22.50
2018-08-09T06:33:41.772Z,22.54
2018-08-09T06:39:37.391Z,22.41
2018-08-09T06:42:09.138Z,22.40
2018-08-09T06:44:38.075Z,22.38
2018-08-09T06:47:07.062Z,22.38
2018-08-09T06:49:35.964Z,22.59
2018-08-09T06:52:05.028Z,22.63
2018-08-09T06:54:34.072Z,22.65
2018-08-09T06:57:04.269Z,22.67
2018-08-09T06:59:33.279Z,22.83
2018-08-09T07:02:03.016Z,22.90
2018-08-09T07:04:31.939Z,22.87
2018-08-09T07:07:00.913Z,22.91
2018-08-09T07:09:29.781Z,23.13
2018-08-09T07:11:58.901Z,23.06
2018-08-09T07:14:27.803Z,23.13
2018-08-09T07:16:56.762Z,23.15
2018-08-09T07:19:25.754Z,23.19
2018-08-09T07:21:54.713Z,23.26
2018-08-09T07:24:23.600Z,23.23
2018-08-09T07:26:52.733Z,23.31
2018-08-09T07:29:21.616Z,23.28
2018-08-09T07:31:50.629Z,23.39
2018-08-09T07:34:19.599Z,23.35
2018-08-09T07:36:48.714Z,23.42
2018-08-09T07:39:17.625Z,23.54
2018-08-09T07:41:46.543Z,23.47
2018-08-09T07:44:15.426Z,23.34
2018-08-09T07:46:44.437Z,23.37
2018-08-09T07:49:13.882Z,23.42
2018-08-09T07:51:43.060Z,23.53
2018-08-09T07:54:12.125Z,23.70
2018-08-09T07:56:41.081Z,23.84
2018-08-09T07:59:11.127Z,23.91
2018-08-09T08:01:40.073Z,23.81
2018-08-09T08:04:09.120Z,23.84
2018-08-09T08:06:42.913Z,23.91
2018-08-09T08:09:15.420Z,24.09
2018-08-09T08:11:45.575Z,24.20
2018-08-09T08:14:15.920Z,24.07
2018-08-09T08:16:47.995Z,24.06
2018-08-09T08:19:18.220Z,24.14
2018-08-09T08:21:53.039Z,24.08
2018-08-09T08:24:23.428Z,24.45
2018-08-09T08:26:55.756Z,24.37
2018-08-09T08:29:29.936Z,24.26
2018-08-09T08:32:00.493Z,24.37
2018-08-09T08:34:30.407Z,24.42
2018-08-09T08:37:00.138Z,24.48
2018-08-09T08:39:30.597Z,24.52
2018-08-09T08:42:01.921Z,24.41
2018-08-09T08:44:45.385Z,24.63
2018-08-09T08:47:25.756Z,24.65
2018-08-09T08:49:56.267Z,24.85
2018-08-09T08:52:28.141Z,24.57
2018-08-09T08:54:57.173Z,25.20
2018-08-09T08:57:29.370Z,24.99
2018-08-09T08:59:58.507Z,25.14
2018-08-09T09:02:27.594Z,25.00
2018-08-09T09:04:56.591Z,24.90
2018-08-09T09:07:26.797Z,24.79
2018-08-09T09:10:27.469Z,25.01
2018-08-09T09:12:57.894Z,24.98
2018-08-09T09:15:26.769Z,25.03
2018-08-09T09:17:55.664Z,25.06
2018-08-09T09:20:24.613Z,25.14
2018-08-09T09:22:53.593Z,25.17
2018-08-09T09:25:22.625Z,25.02
2018-08-09T09:27:51.708Z,25.20
2018-08-09T09:30:20.626Z,25.52
2018-08-09T09:32:49.508Z,25.46
2018-08-09T09:35:18.611Z,25.43
2018-08-09T09:37:47.712Z,25.89
2018-08-09T09:40:16.620Z,25.56
2018-08-09T09:42:46.242Z,25.61
2018-08-09T09:45:15.145Z,25.74
2018-08-09T09:47:44.135Z,25.68
2018-08-09T09:50:13.995Z,25.65
2018-08-09T09:52:44.060Z,25.97
2018-08-09T09:55:12.977Z,26.08
2018-08-09T09:57:41.924Z,25.87
2018-08-09T10:00:15.999Z,25.89
2018-08-09T10:02:46.332Z,26.07
2018-08-09T10:05:15.983Z,26.00
2018-08-09T10:07:44.932Z,25.94
2018-08-09T10:10:13.931Z,26.18
2018-08-09T10:12:43.823Z,26.27
2018-08-09T10:15:13.217Z,26.20
2018-08-09T10:17:42.286Z,26.22
2018-08-09T10:20:12.028Z,26.58
2018-08-09T10:22:40.933Z,26.57
2018-08-09T10:25:09.911Z,26.66
2018-08-09T10:27:38.973Z,26.45
2018-08-09T10:30:08.354Z,26.60
2018-08-09T10:32:38.013Z,26.63
2018-08-09T10:35:06.940Z,27.07
2018-08-09T10:37:36.012Z,27.05
2018-08-09T10:40:05.365Z,27.15
2018-08-09T10:42:34.295Z,27.77
2018-08-09T10:45:03.219Z,27.00
2018-08-09T10:47:32.283Z,27.13
2018-08-09T10:50:01.733Z,27.08
2018-08-09T10:52:30.670Z,26.81
2018-08-09T10:54:59.679Z,27.29
2018-08-09T10:57:28.660Z,27.45
2018-08-09T10:59:59.094Z,27.15
2018-08-09T11:02:28.145Z,27.08
2018-08-09T11:04:57.661Z,27.12
2018-08-09T11:07:26.638Z,27.08
2018-08-09T11:09:55.794Z,26.96
2018-08-09T11:12:25.017Z,27.49
2018-08-09T11:14:53.928Z,27.07
2018-08-09T11:17:22.865Z,27.56
2018-08-09T11:19:51.820Z,27.47
2018-08-09T11:22:20.851Z,27.42
2018-08-09T11:24:50.132Z,27.84
2018-08-09T11:27:19.356Z,27.80
2018-08-09T11:29:48.460Z,27.84
2018-08-09T11:32:17.559Z,27.75
2018-08-09T11:34:46.449Z,27.82
2018-08-09T11:37:15.478Z,27.97
2018-08-09T11:39:44.557Z,28.30
2018-08-09T11:42:13.456Z,28.61
2018-08-09T11:44:42.403Z,28.45
2018-08-09T11:47:12.334Z,28.43
2018-08-09T11:49:41.425Z,28.29
2018-08-09T11:52:13.722Z,28.27
2018-08-09T11:54:43.771Z,28.31
2018-08-09T11:57:14.589Z,28.37
2018-08-09T11:59:49.994Z,28.57
2018-08-09T12:02:22.637Z,28.71
2018-08-09T12:04:53.336Z,28.87
2018-08-09T12:07:35.544Z,28.85
2018-08-09T12:10:08.437Z,28.73
2018-08-09T12:12:43.082Z,28.69
2018-08-09T12:15:15.640Z,28.76
2018-08-09T12:17:46.083Z,28.73
2018-08-09T12:20:19.676Z,28.96
2018-08-09T12:23:02.267Z,29.31
2018-08-09T12:25:42.216Z,29.46
2018-08-09T12:28:14.652Z,29.19
2018-08-09T12:30:45.036Z,29.57
2018-08-09T12:33:37.036Z,29.30
2018-08-09T12:36:10.459Z,29.37
2018-08-09T12:38:48.766Z,29.37
2018-08-09T12:41:23.480Z,29.29
2018-08-09T12:44:12.194Z,29.16
2018-08-09T12:54:40.307Z,29.14
2018-08-09T13:00:16.177Z,29.77
2018-08-09T13:08:47.836Z,29.62
2018-08-09T13:19:31.588Z,30.28
2018-08-09T13:33:17.031Z,30.07
2018-08-09T13:38:36.872Z,29.83
2018-08-09T13:41:05.844Z,30.01
2018-08-09T13:43:34.722Z,29.82
2018-08-09T13:46:03.777Z,29.85
2018-08-09T13:48:32.899Z,29.94
2018-08-09T13:51:01.858Z,29.98
2018-08-09T13:53:30.869Z,30.04
2018-08-09T13:55:59.803Z,30.03
2018-08-09T13:58:28.899Z,30.16
2018-08-09T14:00:58.281Z,30.02
2018-08-09T14:03:27.259Z,30.08
2018-08-09T14:06:03.075Z,30.10
2018-08-09T14:08:33.098Z,30.29
2018-08-09T14:11:02.005Z,30.28
2018-08-09T14:13:31.106Z,30.33
2018-08-09T14:16:00.087Z,30.34
2018-08-09T14:18:30.043Z,30.43
2018-08-09T14:21:00.668Z,30.63
2018-08-09T14:23:29.672Z,30.74
2018-08-09T14:25:58.570Z,30.75
2018-08-09T14:28:28.299Z,30.67
2018-08-09T14:31:07.027Z,30.73
2018-08-09T14:33:36.073Z,30.76
2018-08-09T14:36:04.970Z,30.91
2018-08-09T14:38:34.071Z,30.69
2018-08-09T14:41:04.086Z,30.75
2018-08-09T14:43:33.125Z,30.74
2018-08-09T14:46:02.082Z,30.56
2018-08-09T14:48:31.005Z,30.57
2018-08-09T14:51:00.067Z,30.68
2018-08-09T14:53:29.061Z,30.66
2018-08-09T14:55:58.088Z,30.60
2018-08-09T14:58:27.884Z,30.74
2018-08-09T15:00:56.920Z,30.75
2018-08-09T15:03:25.850Z,30.62
2018-08-09T15:05:55.786Z,30.76
2018-08-09T15:08:24.754Z,30.70
2018-08-09T15:10:53.704Z,30.88
2018-08-09T15:13:29.425Z,30.96
2018-08-09T15:15:58.362Z,30.84
2018-08-09T15:18:33.080Z,30.84
2018-08-09T15:21:02.167Z,30.80
2018-08-09T15:23:32.296Z,30.79
2018-08-09T15:26:01.439Z,30.78
2018-08-09T15:28:31.781Z,30.80
2018-08-09T15:31:00.743Z,30.90
2018-08-09T15:33:30.880Z,30.90
2018-08-09T15:36:00.972Z,30.85
2018-08-09T15:38:30.025Z,30.87
2018-08-09T15:40:59.065Z,30.82
2018-08-09T15:43:28.023Z,30.87
2018-08-09T15:45:57.060Z,30.92
2018-08-09T15:48:27.117Z,30.90
2018-08-09T15:50:56.121Z,31.15
2018-08-09T15:53:25.049Z,30.97
2018-08-09T15:55:54.031Z,31.11
2018-08-09T15:58:22.918Z,31.04
2018-08-09T16:00:51.869Z,31.11
2018-08-09T16:03:20.836Z,31.26
2018-08-09T16:05:50.388Z,31.24
2018-08-09T16:08:19.460Z,31.20
2018-08-09T16:10:48.807Z,31.18
2018-08-09T16:13:17.891Z,31.18
2018-08-09T16:15:47.179Z,31.16
2018-08-09T16:18:16.293Z,31.18
2018-08-09T16:20:46.357Z,31.10
2018-08-09T16:23:16.235Z,31.08
2018-08-09T16:28:38.946Z,30.99
2018-08-09T16:31:09.124Z,30.97
2018-08-09T16:33:41.968Z,30.91
2018-08-09T16:36:12.105Z,30.98
2018-08-09T16:38:41.352Z,30.89
2018-08-09T16:41:13.444Z,30.85
2018-08-09T16:43:43.684Z,30.89
2018-08-09T16:46:13.669Z,30.86
2018-08-09T16:48:43.423Z,30.81
2018-08-09T16:51:12.318Z,30.79
2018-08-09T16:53:42.555Z,30.75
2018-08-09T16:56:11.474Z,30.67
2018-08-09T16:58:40.352Z,30.67
2018-08-09T17:01:10.624Z,30.73
2018-08-09T17:03:39.542Z,30.43
2018-08-09T17:06:08.567Z,28.66
2018-08-09T17:08:37.592Z,28.15
2018-08-09T17:11:06.465Z,27.53
2018-08-09T17:13:36.972Z,26.99
2018-08-09T17:16:05.852Z,25.50
2018-08-09T17:18:34.825Z,25.27
2018-08-09T17:21:03.878Z,25.13
2018-08-09T17:23:32.907Z,25.63
2018-08-09T17:26:01.785Z,25.58
2018-08-09T17:28:30.897Z,24.81
2018-08-09T17:30:59.949Z,24.77
2018-08-09T17:33:29.014Z,25.30
2018-08-09T17:35:57.962Z,24.90
2018-08-09T17:38:26.876Z,25.55
2018-08-09T17:40:55.897Z,25.77
2018-08-09T17:43:25.032Z,25.78
2018-08-09T17:45:56.118Z,25.64
2018-08-09T17:48:27.350Z,25.47
2018-08-09T17:50:56.448Z,25.45
2018-08-09T17:53:25.439Z,25.08
2018-08-09T17:55:54.421Z,24.82
2018-08-09T17:58:23.400Z,24.95
2018-08-09T18:00:52.423Z,25.40
2018-08-09T18:03:22.684Z,25.30
2018-08-09T18:05:52.749Z,25.60
2018-08-09T18:08:21.734Z,25.47
2018-08-09T18:10:50.726Z,25.30
2018-08-09T18:13:19.846Z,25.21
2018-08-09T18:15:48.925Z,25.01
2018-08-09T18:18:20.853Z,24.92
2018-08-09T18:20:49.746Z,25.01
2018-08-09T18:23:20.830Z,25.35
2018-08-09T18:25:51.851Z,25.52
2018-08-09T18:28:21.968Z,25.43
2018-08-09T18:30:50.960Z,25.57
2018-08-09T18:33:21.179Z,25.61
2018-08-09T18:35:50.752Z,25.69
2018-08-09T18:38:20.401Z,25.55
2018-08-09T18:40:52.995Z,25.07
2018-08-09T18:43:22.342Z,24.79
2018-08-09T18:45:52.259Z,24.59
2018-08-09T18:48:21.952Z,24.87
2018-08-09T18:50:53.695Z,25.29
2018-08-09T18:53:23.508Z,25.21
2018-08-09T18:55:52.411Z,25.12
2018-08-09T18:58:23.557Z,24.92
2018-08-09T19:00:52.454Z,24.84
2018-08-09T19:03:26.483Z,24.85
2018-08-09T19:05:59.046Z,25.20
2018-08-09T19:08:32.562Z,24.88
2018-08-09T19:11:02.666Z,24.79
2018-08-09T19:13:32.834Z,24.66
2018-08-09T19:16:02.720Z,24.55
2018-08-09T19:18:36.653Z,24.59
2018-08-09T19:21:06.290Z,24.78
2018-08-09T19:23:35.161Z,24.58
2018-08-09T19:26:07.629Z,24.60
2018-08-09T19:28:42.380Z,24.57
2018-08-09T19:31:24.394Z,24.65
2018-08-09T19:34:03.219Z,24.43
2018-08-09T19:36:43.046Z,24.30
2018-08-09T19:39:20.235Z,24.53
2018-08-09T19:41:53.505Z,24.55
2018-08-09T19:44:26.031Z,24.67
2018-08-09T19:46:55.834Z,24.36
2018-08-09T19:49:30.407Z,24.23
2018-08-09T19:52:11.370Z,24.24
2018-08-09T19:54:48.157Z,24.39
2018-08-09T19:57:24.193Z,24.37
2018-08-09T20:03:37.897Z,24.39
2018-08-09T20:06:15.085Z,24.43
2018-08-09T20:08:46.189Z,24.08
2018-08-09T20:11:22.470Z,24.04
2018-08-09T20:13:59.408Z,24.36
2018-08-09T20:16:28.425Z,24.39
2018-08-09T20:18:57.382Z,24.22
2018-08-09T20:21:26.693Z,24.20
2018-08-09T20:23:55.652Z,24.09
2018-08-09T20:26:24.538Z,24.33
2018-08-09T20:28:53.532Z,24.07
2018-08-09T20:31:22.458Z,23.90
2018-08-09T20:33:51.422Z,23.94
2018-08-09T20:36:20.425Z,23.85
2018-08-09T20:38:49.680Z,23.82
2018-08-09T20:41:18.840Z,23.79
2018-08-09T20:43:48.587Z,23.69
2018-08-09T20:46:17.899Z,23.63
2018-08-09T20:48:46.789Z,23.71
2018-08-09T20:51:16.316Z,23.69
2018-08-09T20:53:45.241Z,23.64
2018-08-09T20:56:14.257Z,23.68
2018-08-09T20:58:43.809Z,23.68
2018-08-09T21:01:14.029Z,23.67
2018-08-09T21:03:42.955Z,23.72
2018-08-09T21:06:13.068Z,23.74
2018-08-09T21:08:42.205Z,23.68
2018-08-09T21:11:11.207Z,23.46
2018-08-09T21:13:40.251Z,23.59
2018-08-09T21:16:09.159Z,23.46
2018-08-09T21:18:38.684Z,23.41
2018-08-09T21:21:07.678Z,23.66
2018-08-09T21:23:36.753Z,23.53
2018-08-09T21:26:05.778Z,23.53
2018-08-09T21:28:35.941Z,23.36
2018-08-09T21:31:04.836Z,23.58
2018-08-09T21:33:33.795Z,23.49
2018-08-09T21:36:02.763Z,23.61
2018-08-09T21:38:31.640Z,23.56
2018-08-09T21:41:00.607Z,23.69
2018-08-09T21:43:29.566Z,23.62
2018-08-09T21:45:58.449Z,23.40
2018-08-09T21:48:27.422Z,23.23
2018-08-09T21:50:56.333Z,23.30
2018-08-09T21:53:25.774Z,23.43
2018-08-09T21:55:54.696Z,23.41
2018-08-09T21:58:23.699Z,23.32
2018-08-09T22:00:58.411Z,23.38
2018-08-09T22:03:29.965Z,23.10
2018-08-09T22:06:04.274Z,23.12
2018-08-09T22:08:40.917Z,22.67
2018-08-09T22:11:17.210Z,22.63
2018-08-09T22:13:51.632Z,22.61
2018-08-09T22:17:23.484Z,22.46
2018-08-09T22:19:57.856Z,22.39
2018-08-09T22:22:29.101Z,22.53
2018-08-09T22:25:00.402Z,22.65
2018-08-09T22:27:35.774Z,22.69
2018-08-09T22:30:12.238Z,22.65
2018-08-09T22:32:43.586Z,22.89
2018-08-09T22:35:19.003Z,22.89
2018-08-09T22:37:50.876Z,22.42
2018-08-09T22:40:24.852Z,22.59
2018-08-09T22:43:06.192Z,22.63
2018-08-09T22:45:41.343Z,22.43
2018-08-09T22:48:16.188Z,22.40
2018-08-09T22:50:45.738Z,22.38
2018-08-09T22:53:15.462Z,22.60
2018-08-09T22:55:44.576Z,22.39
2018-08-09T22:58:13.540Z,22.15
2018-08-09T23:00:42.500Z,22.30
2018-08-09T23:03:12.626Z,22.35
2018-08-09T23:05:41.636Z,22.30
2018-08-09T23:08:12.056Z,22.10
2018-08-09T23:10:41.824Z,22.03
2018-08-09T23:15:40.005Z,22.09
2018-08-09T23:18:09.298Z,21.98
2018-08-09T23:20:38.447Z,22.15
2018-08-09T23:23:07.415Z,22.03
2018-08-09T23:25:36.311Z,21.90
2018-08-09T23:28:05.685Z,21.98
2018-08-09T23:30:35.715Z,21.81
2018-08-09T23:33:04.652Z,21.53
2018-08-09T23:35:33.847Z,21.68
2018-08-09T23:38:02.904Z,21.62
2018-08-09T23:40:31.776Z,21.42
2018-08-09T23:43:00.855Z,21.68
2018-08-09T23:45:29.759Z,21.45
2018-08-09T23:47:58.666Z,21.52
2018-08-09T23:50:27.758Z,21.37
2018-08-09T23:52:56.667Z,21.61
2018-08-09T23:55:25.608Z,21.40
2018-08-09T23:57:54.563Z,21.56
